Terminal Aerodrome Forecast
Issued by NWS

Home | Current Version | Previous Version | Text Only | Print | Product List | Glossary On
Versions: 1 2 3 4 5 6 7 8 9 10 11 12 13 14 15 16 17 18 19 20 21 22 23 24 25 26 27 28 29 30 31 32 33 34 35 36 37 38 39 40 41 42 43 44 45 46 47
000
FTUS45 KBOU 312329
TAFAPA
TAF
KAPA 312329Z 0100/0124 24005KT P6SM SCT035 BKN060
     FM010430 02015KT P6SM VCSH SCT020 OVC040
     FM010600 02014G24KT 3SM -SHSN SCT008 BKN014 OVC020
      TEMPO 0106/0110 1/2SM SHSN VV005
     FM011000 03010KT 5SM -SN BR BKN020
      TEMPO 0110/0114 1SM -SN VV008
     FM011400 05007KT P6SM VCSH SCT012 BKN022
     FM011600 07007KT P6SM SCT020 BKN040
     FM011900 11007KT P6SM SCT040 BKN080=

USA.gov is the U.S. government's official web portal to all federal, state and local government web resources and services.